Time;durP1;ratioP1;P1;durP2;ratioP2;P2;SDS_P1;SDS_P2;PMS_P1;PMS_P2;Temp;Humidity;BMP_temperature;BMP_pressure;BME280_temperature;BME280_humidity;BME280_pressure;Samples;Min_cycle;Max_cycle;Signal;HPM_P1;HPM_P2
2022/04/05 00:01:32;;;;;;;32.83;12.45;;;;;;;;;;5031817;28;20108;-73
2022/04/05 00:03:57;;;;;;;15.20;6.57;;;;;;;;;;5033181;28;20083;-71
2022/04/05 00:06:23;;;;;;;11.15;4.78;;;;;;;;;;5033607;28;20033;-72
2022/04/05 00:08:49;;;;;;;14.15;4.38;;;;;;;;;;5024117;28;20144;-75
2022/04/05 00:11:15;;;;;;;8.95;3.33;;;;;;;;;;5019943;28;20191;-72
2022/04/05 00:13:42;;;;;;;6.25;3.63;;;;;;;;;;5033266;28;20531;-73
2022/04/05 00:16:08;;;;;;;8.57;3.00;;;;;;;;;;5031735;28;20478;-72
2022/04/05 00:18:34;;;;;;;7.28;2.80;;;;;;;;;;5031765;28;20364;-74
2022/04/05 00:21:00;;;;;;;8.55;3.20;;;;;;;;;;5029461;28;20487;-72
2022/04/05 00:23:26;;;;;;;13.23;3.00;;;;;;;;;;5032671;28;20207;-72
2022/04/05 00:25:52;;;;;;;8.05;3.45;;;;;;;;;;5030876;28;20029;-71
2022/04/05 00:28:18;;;;;;;10.70;3.15;;;;;;;;;;5030512;28;20033;-73
2022/04/05 00:30:44;;;;;;;6.38;3.03;;;;;;;;;;5012477;28;20033;-72
2022/04/05 00:33:11;;;;;;;4.93;2.72;;;;;;;;;;5028180;28;20039;-73
2022/04/05 00:35:37;;;;;;;9.88;3.40;;;;;;;;;;5029463;28;20036;-71
2022/04/05 00:38:03;;;;;;;5.38;2.63;;;;;;;;;;5030577;28;20044;-71
2022/04/05 00:40:30;;;;;;;6.38;3.10;;;;;;;;;;5029748;28;20277;-72
2022/04/05 00:42:56;;;;;;;8.23;2.60;;;;;;;;;;5031424;28;20067;-72
2022/04/05 00:45:40;;;;;;;5.07;2.80;;;;;;;;;;5027969;28;20037;-72
2022/04/05 00:48:07;;;;;;;9.77;3.15;;;;;;;;;;5025478;28;20261;-72
2022/04/05 00:50:36;;;;;;;10.13;3.28;;;;;;;;;;5029673;28;20013;-72
2022/04/05 00:53:05;;;;;;;8.02;3.53;;;;;;;;;;5028973;28;20037;-72
2022/04/05 00:55:32;;;;;;;11.18;3.17;;;;;;;;;;5027289;28;20372;-72
2022/04/05 00:58:01;;;;;;;12.25;3.92;;;;;;;;;;5029650;28;20045;-72
2022/04/05 01:00:27;;;;;;;10.68;4.35;;;;;;;;;;5029062;28;20268;-73
2022/04/05 01:02:54;;;;;;;12.55;4.10;;;;;;;;;;5026236;28;20032;-72
2022/04/05 01:05:21;;;;;;;11.88;4.28;;;;;;;;;;5029780;28;20025;-72
2022/04/05 01:07:48;;;;;;;9.38;4.22;;;;;;;;;;5021096;28;20502;-74
2022/04/05 01:10:14;;;;;;;13.82;5.03;;;;;;;;;;5026394;28;20109;-73
2022/04/05 01:12:41;;;;;;;11.32;5.45;;;;;;;;;;5029267;28;20029;-73
2022/04/05 01:15:07;;;;;;;15.23;5.97;;;;;;;;;;5030052;28;20160;-73
2022/04/05 01:17:34;;;;;;;10.52;6.22;;;;;;;;;;5028430;28;20098;-74
2022/04/05 01:20:01;;;;;;;15.38;7.05;;;;;;;;;;5029404;28;20040;-72
2022/04/05 01:22:27;;;;;;;21.63;7.53;;;;;;;;;;5028585;28;20581;-72
2022/04/05 01:24:53;;;;;;;20.00;9.02;;;;;;;;;;5012477;28;20041;-72
2022/04/05 01:27:19;;;;;;;17.50;9.80;;;;;;;;;;5028214;28;20113;-73
2022/04/05 01:29:47;;;;;;;17.13;9.93;;;;;;;;;;5029579;28;20037;-72
2022/04/05 01:32:13;;;;;;;22.90;11.90;;;;;;;;;;5031154;28;20057;-73
2022/04/05 01:34:40;;;;;;;22.02;11.68;;;;;;;;;;5030055;28;20502;-72
2022/04/05 01:37:07;;;;;;;34.75;12.50;;;;;;;;;;5031768;28;20037;-72
2022/04/05 01:39:34;;;;;;;28.88;12.60;;;;;;;;;;5032039;28;20052;-72
2022/04/05 01:42:01;;;;;;;27.55;12.65;;;;;;;;;;5031330;28;20029;-72
2022/04/05 01:44:28;;;;;;;26.70;13.15;;;;;;;;;;5032338;28;20032;-72
2022/04/05 01:46:54;;;;;;;29.35;13.25;;;;;;;;;;5031013;28;20462;-72
2022/04/05 01:49:20;;;;;;;26.58;13.00;;;;;;;;;;5030531;28;20026;-73
2022/04/05 01:51:47;;;;;;;28.17;13.25;;;;;;;;;;5030761;28;20074;-72
2022/04/05 01:54:15;;;;;;;29.38;12.55;;;;;;;;;;5032691;28;20041;-73
2022/04/05 01:56:41;;;;;;;26.13;12.13;;;;;;;;;;5030814;28;20506;-73
2022/04/05 01:59:07;;;;;;;23.20;11.13;;;;;;;;;;5031935;28;20280;-72
2022/04/05 02:01:34;;;;;;;28.17;12.48;;;;;;;;;;5031867;28;20030;-72
2022/04/05 02:04:00;;;;;;;24.33;11.50;;;;;;;;;;5032207;28;20108;-71
2022/04/05 02:06:34;;;;;;;24.48;9.80;;;;;;;;;;5030844;28;20414;-73
2022/04/05 02:09:00;;;;;;;22.55;10.30;;;;;;;;;;5023868;28;20033;-71
2022/04/05 02:11:26;;;;;;;20.45;9.18;;;;;;;;;;5030495;28;20260;-72
2022/04/05 02:13:52;;;;;;;20.27;9.45;;;;;;;;;;5032648;28;20029;-70
2022/04/05 02:16:18;;;;;;;20.95;9.65;;;;;;;;;;5031126;28;20025;-72
2022/04/05 02:18:44;;;;;;;21.00;9.95;;;;;;;;;;5030757;28;20057;-72
2022/04/05 02:21:11;;;;;;;17.60;9.13;;;;;;;;;;5032078;28;20040;-73
2022/04/05 02:23:37;;;;;;;21.40;8.65;;;;;;;;;;5036273;28;20086;-73
2022/04/05 02:26:03;;;;;;;20.45;9.75;;;;;;;;;;5034226;28;20120;-72
2022/04/05 02:28:29;;;;;;;21.98;8.45;;;;;;;;;;5035091;28;20088;-72
2022/04/05 02:30:55;;;;;;;20.52;8.85;;;;;;;;;;5017388;28;20595;-72
2022/04/05 02:33:21;;;;;;;23.25;10.07;;;;;;;;;;5035190;28;20041;-72
2022/04/05 02:35:48;;;;;;;32.05;11.82;;;;;;;;;;5035013;28;20440;-72
2022/04/05 02:38:15;;;;;;;35.28;14.02;;;;;;;;;;5035715;28;20056;-72
2022/04/05 02:40:41;;;;;;;35.45;15.52;;;;;;;;;;5033763;28;20475;-72
2022/04/05 02:43:07;;;;;;;36.80;16.02;;;;;;;;;;5033179;28;20021;-72
2022/04/05 02:45:33;;;;;;;42.53;16.90;;;;;;;;;;5035057;28;20112;-72
2022/04/05 02:47:59;;;;;;;51.95;18.33;;;;;;;;;;5034756;28;20029;-71
2022/04/05 02:50:26;;;;;;;46.80;19.27;;;;;;;;;;5033480;28;20120;-73
2022/04/05 02:52:52;;;;;;;49.53;20.52;;;;;;;;;;5034299;28;20056;-72
2022/04/05 02:55:18;;;;;;;51.10;21.08;;;;;;;;;;5026188;28;20069;-73
2022/04/05 02:57:45;;;;;;;52.90;20.88;;;;;;;;;;5033766;28;20048;-73
2022/04/05 03:00:12;;;;;;;67.18;23.48;;;;;;;;;;5033193;28;20040;-71
2022/04/05 03:02:39;;;;;;;60.15;22.42;;;;;;;;;;5033442;28;20053;-72
2022/04/05 03:05:06;;;;;;;49.90;21.48;;;;;;;;;;5035103;28;20030;-73
2022/04/05 03:07:34;;;;;;;55.88;21.65;;;;;;;;;;5034223;28;20126;-72
2022/04/05 03:10:00;;;;;;;52.85;21.55;;;;;;;;;;5033525;28;20528;-72
2022/04/05 03:12:26;;;;;;;64.70;23.77;;;;;;;;;;5031653;28;20037;-72
2022/04/05 03:14:52;;;;;;;56.05;22.52;;;;;;;;;;5035304;28;20029;-72
2022/04/05 03:17:18;;;;;;;55.35;22.77;;;;;;;;;;5033962;28;20022;-72
2022/04/05 03:19:44;;;;;;;56.83;22.00;;;;;;;;;;5031558;28;20479;-73
2022/04/05 03:22:10;;;;;;;55.42;22.30;;;;;;;;;;5032713;28;20033;-73
2022/04/05 03:24:36;;;;;;;57.97;22.88;;;;;;;;;;5034589;28;20164;-72
2022/04/05 03:27:03;;;;;;;50.60;20.70;;;;;;;;;;5024484;28;20030;-73
2022/04/05 03:29:29;;;;;;;53.33;20.38;;;;;;;;;;5033307;28;20037;-72
2022/04/05 03:31:55;;;;;;;49.13;19.38;;;;;;;;;;5034882;28;20053;-72
2022/04/05 03:34:21;;;;;;;53.53;18.67;;;;;;;;;;5032512;28;20470;-72
2022/04/05 03:36:47;;;;;;;53.58;18.42;;;;;;;;;;5031785;28;20052;-73
2022/04/05 03:39:14;;;;;;;53.03;16.58;;;;;;;;;;5035203;28;20110;-72
2022/04/05 03:41:45;;;;;;;41.17;15.40;;;;;;;;;;5034513;28;20049;-72
2022/04/05 03:44:11;;;;;;;43.50;16.38;;;;;;;;;;5035116;28;20037;-72
2022/04/05 03:46:37;;;;;;;45.15;15.98;;;;;;;;;;5029169;28;20029;-73
2022/04/05 03:49:03;;;;;;;41.95;15.52;;;;;;;;;;5034022;28;20052;-72
2022/04/05 03:51:29;;;;;;;35.67;12.60;;;;;;;;;;5033691;28;20025;-73
2022/04/05 03:53:56;;;;;;;40.92;13.90;;;;;;;;;;5034410;28;20472;-74
2022/04/05 03:56:22;;;;;;;38.28;13.95;;;;;;;;;;5031619;28;20036;-73
2022/04/05 03:58:49;;;;;;;37.28;14.00;;;;;;;;;;5032201;28;20471;-72
2022/04/05 04:01:15;;;;;;;37.90;14.15;;;;;;;;;;5032254;28;20030;-73
2022/04/05 04:03:41;;;;;;;42.42;15.35;;;;;;;;;;5013860;28;20036;-71
2022/04/05 04:06:07;;;;;;;43.58;15.38;;;;;;;;;;5031367;28;20041;-71
2022/04/05 04:08:33;;;;;;;42.88;15.93;;;;;;;;;;5032918;28;20025;-74
2022/04/05 04:10:59;;;;;;;46.65;15.80;;;;;;;;;;5032579;28;20038;-72
2022/04/05 04:13:26;;;;;;;52.10;17.38;;;;;;;;;;5030517;28;20049;-72
2022/04/05 04:15:52;;;;;;;48.67;15.65;;;;;;;;;;5032510;28;20244;-73
2022/04/05 04:18:18;;;;;;;43.10;16.75;;;;;;;;;;5032377;28;20029;-72
2022/04/05 04:20:44;;;;;;;48.03;15.38;;;;;;;;;;5030423;28;20034;-71
2022/04/05 04:23:11;;;;;;;56.08;16.10;;;;;;;;;;5030429;28;20033;-72
2022/04/05 04:25:37;;;;;;;47.42;15.90;;;;;;;;;;5031589;28;20025;-73
2022/04/05 04:28:06;;;;;;;48.45;15.82;;;;;;;;;;5031197;28;20503;-72
2022/04/05 04:30:33;;;;;;;48.45;15.73;;;;;;;;;;5030469;28;20029;-74
2022/04/05 04:32:59;;;;;;;43.67;15.52;;;;;;;;;;5030564;28;20061;-73
2022/04/05 04:35:26;;;;;;;56.85;15.73;;;;;;;;;;5030413;28;20060;-73
2022/04/05 04:37:52;;;;;;;48.78;16.52;;;;;;;;;;5030744;28;20036;-72
2022/04/05 04:40:18;;;;;;;55.15;17.27;;;;;;;;;;5030201;28;20033;-72
2022/04/05 04:42:44;;;;;;;44.03;17.65;;;;;;;;;;5029261;28;20029;-72
2022/04/05 04:45:11;;;;;;;53.58;16.80;;;;;;;;;;5029518;28;20029;-72
2022/04/05 04:47:37;;;;;;;46.55;17.42;;;;;;;;;;5028894;28;20026;-72
2022/04/05 04:50:03;;;;;;;48.15;18.33;;;;;;;;;;5028761;28;20025;-72
2022/04/05 04:52:29;;;;;;;58.70;19.17;;;;;;;;;;5029840;28;20194;-73
2022/04/05 04:54:55;;;;;;;45.47;19.10;;;;;;;;;;5030452;28;20498;-73
2022/04/05 04:57:23;;;;;;;48.70;19.17;;;;;;;;;;5028233;28;20140;-73
2022/04/05 04:59:49;;;;;;;53.22;20.73;;;;;;;;;;5029614;28;20021;-73
2022/04/05 05:02:15;;;;;;;61.50;22.58;;;;;;;;;;5029920;28;20037;-73
2022/04/05 05:04:41;;;;;;;70.00;24.48;;;;;;;;;;5027587;28;20033;-73
2022/04/05 05:07:07;;;;;;;66.93;25.35;;;;;;;;;;5027997;28;20045;-72
2022/04/05 05:09:33;;;;;;;69.57;26.38;;;;;;;;;;5025622;28;20037;-73
2022/04/05 05:12:00;;;;;;;55.60;25.35;;;;;;;;;;5029923;28;20120;-73
2022/04/05 05:14:30;;;;;;;70.45;26.83;;;;;;;;;;5031097;28;20072;-74
2022/04/05 05:16:56;;;;;;;64.95;25.80;;;;;;;;;;5029736;28;20037;-73
2022/04/05 05:19:22;;;;;;;76.10;26.95;;;;;;;;;;5034267;28;20073;-75
2022/04/05 05:21:48;;;;;;;75.60;27.38;;;;;;;;;;5026789;28;20029;-76
2022/04/05 05:24:14;;;;;;;68.88;25.52;;;;;;;;;;5033209;28;20472;-74
2022/04/05 05:26:41;;;;;;;72.00;26.90;;;;;;;;;;5033232;28;20026;-74
2022/04/05 05:29:07;;;;;;;81.07;27.15;;;;;;;;;;5032011;28;20036;-74
2022/04/05 05:31:33;;;;;;;60.95;24.50;;;;;;;;;;5032709;28;20037;-76
2022/04/05 05:33:59;;;;;;;68.00;24.25;;;;;;;;;;5033588;28;20354;-73
2022/04/05 05:36:25;;;;;;;67.82;24.35;;;;;;;;;;5027482;28;20443;-74
2022/04/05 05:38:51;;;;;;;57.55;23.00;;;;;;;;;;5028010;28;20456;-75
2022/04/05 05:41:17;;;;;;;55.63;22.05;;;;;;;;;;5030494;28;20064;-73
2022/04/05 05:43:45;;;;;;;51.65;20.63;;;;;;;;;;5032412;28;20164;-72
2022/04/05 05:46:11;;;;;;;49.03;19.58;;;;;;;;;;5030414;28;20029;-73
2022/04/05 05:48:39;;;;;;;53.70;18.63;;;;;;;;;;5032274;28;20076;-75
2022/04/05 05:51:05;;;;;;;49.15;19.80;;;;;;;;;;5029002;28;20037;-73
2022/04/05 05:53:32;;;;;;;50.25;18.08;;;;;;;;;;5026537;28;20087;-74
2022/04/05 05:55:58;;;;;;;44.70;18.58;;;;;;;;;;5030765;28;20041;-74
2022/04/05 05:58:24;;;;;;;39.72;18.00;;;;;;;;;;5031984;28;20040;-76
2022/04/05 06:00:51;;;;;;;39.58;17.25;;;;;;;;;;5031219;28;20489;-74
2022/04/05 06:03:17;;;;;;;52.67;17.73;;;;;;;;;;5034813;28;20159;-73
2022/04/05 06:05:46;;;;;;;41.67;16.90;;;;;;;;;;5033666;28;20058;-74
2022/04/05 06:08:13;;;;;;;47.85;17.45;;;;;;;;;;5029713;28;20029;-74
2022/04/05 06:10:40;;;;;;;37.38;15.65;;;;;;;;;;5031278;28;20060;-74
2022/04/05 06:13:06;;;;;;;52.42;16.27;;;;;;;;;;5031623;28;20045;-74
2022/04/05 06:15:32;;;;;;;49.88;16.40;;;;;;;;;;5033062;28;20160;-75
2022/04/05 06:17:58;;;;;;;32.38;15.20;;;;;;;;;;5029261;28;20091;-76
2022/04/05 06:26:13;;;;;;;27.05;12.68;;;;;;;;;;5051016;23;20068;-75
2022/04/05 06:28:39;;;;;;;25.13;12.00;;;;;;;;;;5052833;28;20095;-74
2022/04/05 06:31:05;;;;;;;27.73;12.55;;;;;;;;;;5053117;28;20143;-75
2022/04/05 06:33:31;;;;;;;32.50;13.20;;;;;;;;;;5037168;28;20097;-74
2022/04/05 06:35:58;;;;;;;30.63;12.20;;;;;;;;;;5036516;28;20033;-75
2022/04/05 06:38:25;;;;;;;27.45;12.13;;;;;;;;;;5053896;28;20437;-74
2022/04/05 06:40:52;;;;;;;32.15;12.02;;;;;;;;;;5036337;28;20025;-75
2022/04/05 06:43:20;;;;;;;23.88;11.27;;;;;;;;;;5035502;28;20037;-76
2022/04/05 06:45:46;;;;;;;27.02;10.95;;;;;;;;;;5034064;28;20033;-74
2022/04/05 06:48:12;;;;;;;29.33;10.73;;;;;;;;;;5054715;28;20037;-75
2022/04/05 06:50:39;;;;;;;35.10;11.88;;;;;;;;;;5072829;28;20028;-75
2022/04/05 06:53:06;;;;;;;24.33;10.35;;;;;;;;;;5062910;28;20084;-75
2022/04/05 06:55:34;;;;;;;27.48;10.50;;;;;;;;;;5068257;28;20102;-76
2022/04/05 06:58:00;;;;;;;27.00;10.57;;;;;;;;;;5040909;28;20116;-75
2022/04/05 07:00:26;;;;;;;26.35;10.50;;;;;;;;;;5051771;28;20449;-74
2022/04/05 07:02:52;;;;;;;28.45;10.30;;;;;;;;;;5052402;28;20036;-75
2022/04/05 07:05:19;;;;;;;23.48;10.38;;;;;;;;;;5030889;28;20041;-75
2022/04/05 07:07:45;;;;;;;25.13;10.95;;;;;;;;;;5049148;28;20474;-75
2022/04/05 07:10:12;;;;;;;26.70;11.40;;;;;;;;;;5050874;28;20125;-73
2022/04/05 07:12:38;;;;;;;27.40;11.00;;;;;;;;;;5046234;28;20039;-76
2022/04/05 07:15:05;;;;;;;32.90;12.95;;;;;;;;;;5049988;28;20029;-75
2022/04/05 07:17:31;;;;;;;34.17;12.43;;;;;;;;;;5051812;28;20025;-77
2022/04/05 07:19:57;;;;;;;26.30;12.45;;;;;;;;;;5035479;28;20438;-76
2022/04/05 07:22:25;;;;;;;38.17;10.35;;;;;;;;;;5050262;28;20026;-75
2022/04/05 07:24:52;;;;;;;27.63;10.38;;;;;;;;;;5041580;28;20076;-75
2022/04/05 07:27:18;;;;;;;26.02;11.50;;;;;;;;;;5052236;28;20013;-73
2022/04/05 07:29:44;;;;;;;24.65;10.30;;;;;;;;;;5052278;28;20032;-74
2022/04/05 07:32:10;;;;;;;28.70;10.57;;;;;;;;;;5034221;28;20056;-74
2022/04/05 07:34:36;;;;;;;21.25;9.82;;;;;;;;;;5051509;28;20025;-72
2022/04/05 07:37:02;;;;;;;29.70;10.25;;;;;;;;;;5013350;28;20444;-73
2022/04/05 07:39:28;;;;;;;19.17;10.48;;;;;;;;;;5053347;28;20043;-74
2022/04/05 07:41:54;;;;;;;26.88;9.63;;;;;;;;;;5037028;28;20033;-73
2022/04/05 07:44:20;;;;;;;30.10;10.30;;;;;;;;;;5052703;28;20188;-75
2022/04/05 07:46:47;;;;;;;25.00;9.35;;;;;;;;;;5053612;28;20039;-75
2022/04/05 07:49:13;;;;;;;28.27;9.40;;;;;;;;;;5053173;28;20089;-75
2022/04/05 07:51:39;;;;;;;27.95;10.10;;;;;;;;;;5051867;28;20097;-72
2022/04/05 07:54:05;;;;;;;29.27;10.10;;;;;;;;;;5066561;28;20033;-74
2022/04/05 07:56:31;;;;;;;25.10;8.85;;;;;;;;;;5034296;28;20108;-74
2022/04/05 07:58:57;;;;;;;28.88;8.10;;;;;;;;;;5052434;28;20379;-74
2022/04/05 08:01:29;;;;;;;25.08;7.68;;;;;;;;;;5044513;28;20021;-74
2022/04/05 08:03:55;;;;;;;23.05;7.38;;;;;;;;;;5052115;28;20382;-74
2022/04/05 08:06:23;;;;;;;19.40;7.28;;;;;;;;;;5032960;28;20394;-74
2022/04/05 08:08:51;;;;;;;21.00;7.03;;;;;;;;;;5050302;28;20033;-74
2022/04/05 08:11:17;;;;;;;19.58;6.93;;;;;;;;;;5050391;28;20124;-75
2022/04/05 08:13:43;;;;;;;17.23;6.35;;;;;;;;;;5049395;28;20029;-74
2022/04/05 08:16:09;;;;;;;15.07;5.78;;;;;;;;;;5049938;28;20094;-73
2022/04/05 08:18:35;;;;;;;18.30;6.95;;;;;;;;;;5051500;28;20041;-75
2022/04/05 08:21:01;;;;;;;15.85;5.20;;;;;;;;;;5051636;28;20486;-75
2022/04/05 08:23:27;;;;;;;14.93;5.93;;;;;;;;;;5033318;28;20029;-75
2022/04/05 08:25:53;;;;;;;14.57;5.88;;;;;;;;;;5047462;28;20053;-74
2022/04/05 08:28:19;;;;;;;17.80;5.55;;;;;;;;;;5051029;28;20125;-74
2022/04/05 08:30:45;;;;;;;11.50;5.38;;;;;;;;;;5056563;28;20039;-72
2022/04/05 08:33:11;;;;;;;21.83;6.80;;;;;;;;;;5057988;28;20480;-74
2022/04/05 08:35:39;;;;;;;14.38;6.57;;;;;;;;;;5048042;28;20063;-74
2022/04/05 08:38:05;;;;;;;11.20;5.57;;;;;;;;;;5035095;28;20870;-75
2022/04/05 08:40:39;;;;;;;16.63;6.97;;;;;;;;;;5090737;27;20424;-73
2022/04/05 08:43:05;;;;;;;13.75;7.07;;;;;;;;;;5057179;28;20523;-76
2022/04/05 08:45:31;;;;;;;20.52;6.93;;;;;;;;;;5058604;28;20079;-74
2022/04/05 08:47:58;;;;;;;16.38;7.20;;;;;;;;;;5052167;28;20072;-73
2022/04/05 08:50:26;;;;;;;19.73;7.20;;;;;;;;;;5068593;28;20056;-74
2022/04/05 08:52:54;;;;;;;18.67;8.38;;;;;;;;;;5073575;28;20013;-74
2022/04/05 08:55:20;;;;;;;16.08;8.00;;;;;;;;;;5050162;28;20097;-74
2022/04/05 08:57:46;;;;;;;21.10;7.78;;;;;;;;;;5055213;28;20033;-74
2022/04/05 09:00:14;;;;;;;16.35;7.82;;;;;;;;;;5086478;28;20416;-73
2022/04/05 09:02:51;;;;;;;18.00;8.20;;;;;;;;;;5067814;28;20024;-75
2022/04/05 09:05:36;;;;;;;18.50;8.80;;;;;;;;;;5091088;28;20121;-74
2022/04/05 09:08:15;;;;;;;22.02;8.70;;;;;;;;;;5065357;28;20462;-75
2022/04/05 09:10:45;;;;;;;20.15;8.35;;;;;;;;;;5079741;28;20024;-74
2022/04/05 09:13:12;;;;;;;24.38;9.93;;;;;;;;;;5065627;28;20473;-74
2022/04/05 09:15:40;;;;;;;22.73;9.75;;;;;;;;;;5077835;28;20023;-75
2022/04/05 09:18:06;;;;;;;24.65;9.10;;;;;;;;;;5078643;28;20073;-74
2022/04/05 09:20:43;;;;;;;23.77;9.35;;;;;;;;;;5076682;28;20041;-74
2022/04/05 09:23:29;;;;;;;19.73;8.77;;;;;;;;;;5078834;28;20428;-75
2022/04/05 09:26:04;;;;;;;15.40;8.68;;;;;;;;;;5072991;28;20021;-74
2022/04/05 09:28:31;;;;;;;22.77;9.15;;;;;;;;;;5067378;28;20052;-74
2022/04/05 09:31:01;;;;;;;17.73;9.18;;;;;;;;;;5066364;28;20021;-74
2022/04/05 09:33:31;;;;;;;17.83;8.88;;;;;;;;;;5069546;28;20035;-75
2022/04/05 09:36:14;;;;;;;18.60;9.20;;;;;;;;;;5053411;28;20035;-76
2022/04/05 09:38:41;;;;;;;21.20;8.35;;;;;;;;;;5075802;28;20044;-74
2022/04/05 09:41:13;;;;;;;22.67;9.02;;;;;;;;;;5063569;28;20027;-73
2022/04/05 09:43:50;;;;;;;20.42;8.85;;;;;;;;;;5073286;28;20072;-75
2022/04/05 09:46:16;;;;;;;17.58;8.38;;;;;;;;;;5084310;28;20095;-74
2022/04/05 09:48:42;;;;;;;14.70;8.10;;;;;;;;;;5068366;28;20033;-74
2022/04/05 09:51:09;;;;;;;23.08;7.55;;;;;;;;;;5040201;28;20114;-74
2022/04/05 09:53:50;;;;;;;13.93;8.02;;;;;;;;;;5061177;28;20108;-74
2022/04/05 09:56:23;;;;;;;14.55;7.00;;;;;;;;;;5052187;28;20485;-73
2022/04/05 09:58:49;;;;;;;15.23;7.30;;;;;;;;;;5052833;28;20089;-74
2022/04/05 10:01:16;;;;;;;15.80;6.60;;;;;;;;;;5053551;28;20083;-73
2022/04/05 10:03:43;;;;;;;15.98;6.38;;;;;;;;;;5055434;28;20020;-75
2022/04/05 10:06:09;;;;;;;12.10;6.40;;;;;;;;;;5041505;28;20033;-74
2022/04/05 10:08:36;;;;;;;13.77;6.28;;;;;;;;;;5060024;28;20559;-74
2022/04/05 10:11:03;;;;;;;14.23;6.35;;;;;;;;;;5057132;28;20063;-74
2022/04/05 10:13:29;;;;;;;13.63;5.90;;;;;;;;;;5055193;28;20037;-75
2022/04/05 10:16:00;;;;;;;15.10;6.47;;;;;;;;;;5055554;28;20033;-74
2022/04/05 10:18:32;;;;;;;13.35;6.32;;;;;;;;;;5060188;28;20013;-75
2022/04/05 10:20:58;;;;;;;13.30;5.90;;;;;;;;;;5049936;28;20017;-74
2022/04/05 10:23:24;;;;;;;17.40;6.85;;;;;;;;;;5063377;28;20028;-74
2022/04/05 10:25:51;;;;;;;22.77;6.75;;;;;;;;;;5024332;28;20463;-73
2022/04/05 10:28:23;;;;;;;16.85;6.63;;;;;;;;;;5063045;28;20021;-73
2022/04/05 10:31:09;;;;;;;17.05;6.15;;;;;;;;;;5055721;28;20029;-74
2022/04/05 10:33:57;;;;;;;12.20;5.95;;;;;;;;;;5011661;28;20064;-74
2022/04/05 10:36:24;;;;;;;9.48;5.82;;;;;;;;;;5057493;28;20039;-73
2022/04/05 10:39:09;;;;;;;15.75;6.85;;;;;;;;;;5051234;28;20053;-75
2022/04/05 10:41:35;;;;;;;12.43;5.20;;;;;;;;;;5058131;28;20048;-73
2022/04/05 10:44:27;;;;;;;12.05;5.68;;;;;;;;;;5053841;28;20016;-73
2022/04/05 10:46:55;;;;;;;12.38;5.50;;;;;;;;;;5056953;28;20021;-74
2022/04/05 10:49:33;;;;;;;9.57;5.10;;;;;;;;;;5055178;28;20041;-73
2022/04/05 10:52:10;;;;;;;7.63;4.72;;;;;;;;;;5055490;28;21257;-73
2022/04/05 10:54:37;;;;;;;10.77;5.32;;;;;;;;;;5062116;28;20095;-74
2022/04/05 10:57:27;;;;;;;14.85;5.60;;;;;;;;;;5057175;28;20035;-73
2022/04/05 11:00:06;;;;;;;12.45;5.47;;;;;;;;;;5064518;28;20489;-75
2022/04/05 11:02:36;;;;;;;9.30;4.95;;;;;;;;;;5064023;28;20029;-73
2022/04/05 11:05:18;;;;;;;12.95;5.05;;;;;;;;;;5056377;28;20028;-74
2022/04/05 11:07:53;;;;;;;12.15;5.00;;;;;;;;;;5057455;28;20036;-74
2022/04/05 11:10:20;;;;;;;13.25;5.45;;;;;;;;;;5037354;28;20029;-74
2022/04/05 11:12:46;;;;;;;16.95;4.47;;;;;;;;;;5059650;28;20025;-74
2022/04/05 11:15:14;;;;;;;13.75;5.50;;;;;;;;;;5058100;28;20096;-74
2022/04/05 11:17:42;;;;;;;11.80;5.20;;;;;;;;;;5069318;28;20055;-74
2022/04/05 11:20:09;;;;;;;13.20;5.68;;;;;;;;;;5036088;28;20165;-72
2022/04/05 11:22:36;;;;;;;15.82;5.85;;;;;;;;;;5068451;28;20034;-73
2022/04/05 11:25:04;;;;;;;12.52;6.00;;;;;;;;;;5061371;28;20035;-73
2022/04/05 11:27:44;;;;;;;10.90;5.80;;;;;;;;;;5057660;28;20033;-74
2022/04/05 11:30:26;;;;;;;8.93;5.78;;;;;;;;;;5057853;28;20025;-75
2022/04/05 11:33:17;;;;;;;12.43;5.97;;;;;;;;;;5043340;28;20079;-74
2022/04/05 11:35:47;;;;;;;10.07;6.40;;;;;;;;;;5058114;28;20024;-73
2022/04/05 11:38:19;;;;;;;9.25;6.13;;;;;;;;;;5069812;28;20272;-74
2022/04/05 11:40:46;;;;;;;19.55;7.03;;;;;;;;;;5047526;28;20057;-74
2022/04/05 11:43:19;;;;;;;13.27;5.97;;;;;;;;;;5056977;28;20247;-75
2022/04/05 11:45:46;;;;;;;14.45;6.28;;;;;;;;;;5057588;28;20028;-73
2022/04/05 11:48:16;;;;;;;14.20;6.00;;;;;;;;;;5067072;28;20232;-74
2022/04/05 11:50:42;;;;;;;10.98;6.90;;;;;;;;;;5037145;28;20056;-74
2022/04/05 11:53:21;;;;;;;11.90;6.22;;;;;;;;;;5054679;28;20029;-74
2022/04/05 11:56:06;;;;;;;9.75;6.90;;;;;;;;;;5056167;28;20028;-75
2022/04/05 11:58:34;;;;;;;15.85;7.22;;;;;;;;;;5038443;28;20151;-75
2022/04/05 12:01:02;;;;;;;12.23;6.93;;;;;;;;;;5047591;28;20571;-75
2022/04/05 12:03:28;;;;;;;14.30;6.93;;;;;;;;;;5048978;28;20485;-75
2022/04/05 12:05:54;;;;;;;10.73;6.95;;;;;;;;;;5031810;28;20120;-74
2022/04/05 12:08:20;;;;;;;14.05;7.30;;;;;;;;;;5049247;28;20017;-74
2022/04/05 12:10:46;;;;;;;14.20;7.20;;;;;;;;;;5064140;28;20032;-74
2022/04/05 12:13:12;;;;;;;12.10;7.35;;;;;;;;;;5056422;28;20023;-74
2022/04/05 12:15:38;;;;;;;12.77;7.65;;;;;;;;;;5056485;28;20033;-75
2022/04/05 12:18:18;;;;;;;17.70;8.38;;;;;;;;;;5057604;28;20029;-76
2022/04/05 12:20:54;;;;;;;14.88;7.38;;;;;;;;;;5057413;28;20091;-76
2022/04/05 12:23:21;;;;;;;13.05;7.50;;;;;;;;;;5055918;28;20482;-76
2022/04/05 12:26:05;;;;;;;12.73;8.07;;;;;;;;;;5060223;28;20025;-75
2022/04/05 12:28:31;;;;;;;15.13;8.00;;;;;;;;;;5055002;28;20037;-73
2022/04/05 12:31:07;;;;;;;14.57;8.45;;;;;;;;;;5052203;28;20083;-75
2022/04/05 12:33:34;;;;;;;15.20;8.32;;;;;;;;;;5033289;28;20055;-73
2022/04/05 12:36:00;;;;;;;18.65;10.02;;;;;;;;;;5050765;28;20118;-74
2022/04/05 12:38:26;;;;;;;15.98;8.18;;;;;;;;;;5052647;28;20498;-74
2022/04/05 12:40:52;;;;;;;17.08;8.25;;;;;;;;;;5054177;28;20388;-74
2022/04/05 12:43:22;;;;;;;12.73;7.97;;;;;;;;;;5072963;28;20027;-75
2022/04/05 12:45:48;;;;;;;17.67;7.85;;;;;;;;;;5070300;28;20028;-74
2022/04/05 12:48:15;;;;;;;12.25;7.43;;;;;;;;;;5060792;28;20036;-75
2022/04/05 12:50:45;;;;;;;14.88;8.45;;;;;;;;;;5057600;28;20033;-74
2022/04/05 12:53:11;;;;;;;14.63;8.07;;;;;;;;;;5034478;28;20037;-75
2022/04/05 12:55:37;;;;;;;11.40;7.68;;;;;;;;;;5042351;28;20047;-74
2022/04/05 12:58:03;;;;;;;14.88;8.75;;;;;;;;;;5034710;28;20484;-74
2022/04/05 13:00:31;;;;;;;16.13;8.95;;;;;;;;;;5034664;28;20021;-75
2022/04/05 13:03:01;;;;;;;14.95;8.25;;;;;;;;;;5069402;28;20020;-75
2022/04/05 13:08:17;;;;;;;17.08;8.80;;;;;;;;;;5051338;28;20463;-75
2022/04/05 13:10:45;;;;;;;19.83;9.60;;;;;;;;;;5068935;28;20060;-74
2022/04/05 13:13:35;;;;;;;14.52;8.93;;;;;;;;;;5068974;28;20025;-74
2022/04/05 13:16:19;;;;;;;18.00;8.98;;;;;;;;;;5057610;28;20037;-75
2022/04/05 13:18:46;;;;;;;18.10;9.00;;;;;;;;;;5051926;28;20100;-74
2022/04/05 13:21:17;;;;;;;17.95;9.20;;;;;;;;;;5068068;28;20531;-74
2022/04/05 13:23:44;;;;;;;13.82;8.68;;;;;;;;;;5048869;28;20033;-73
2022/04/05 13:26:20;;;;;;;17.92;8.15;;;;;;;;;;5052369;28;20488;-75
2022/04/05 13:28:46;;;;;;;14.82;8.32;;;;;;;;;;5055848;28;20510;-76
2022/04/05 13:31:16;;;;;;;18.73;9.32;;;;;;;;;;5054211;28;20094;-75
2022/04/05 13:33:43;;;;;;;13.50;8.27;;;;;;;;;;5077266;28;20056;-74
2022/04/05 13:36:09;;;;;;;13.98;8.07;;;;;;;;;;5071803;28;20413;-75
2022/04/05 13:38:36;;;;;;;15.73;7.93;;;;;;;;;;5054742;28;20047;-73
2022/04/05 13:41:04;;;;;;;12.73;7.45;;;;;;;;;;5065861;28;20051;-74
2022/04/05 13:43:31;;;;;;;11.77;7.53;;;;;;;;;;5053678;28;20040;-74
2022/04/05 13:45:57;;;;;;;15.27;7.28;;;;;;;;;;5054798;28;20056;-74
2022/04/05 13:48:23;;;;;;;16.67;7.93;;;;;;;;;;5080226;28;20033;-74
2022/04/05 13:50:49;;;;;;;15.48;7.72;;;;;;;;;;5053369;28;20024;-75
2022/04/05 13:53:17;;;;;;;15.48;7.70;;;;;;;;;;5051093;28;20519;-75
2022/04/05 13:55:44;;;;;;;15.25;7.70;;;;;;;;;;5038729;28;20029;-74
2022/04/05 13:58:10;;;;;;;17.10;8.48;;;;;;;;;;5042803;28;20028;-73
2022/04/05 14:00:36;;;;;;;13.48;8.27;;;;;;;;;;5057418;28;20043;-76
2022/04/05 14:03:02;;;;;;;15.13;7.88;;;;;;;;;;5060734;28;20405;-74
2022/04/05 14:05:28;;;;;;;16.35;8.02;;;;;;;;;;5056887;28;20048;-73
2022/04/05 14:07:56;;;;;;;15.43;8.40;;;;;;;;;;5058631;28;20111;-74
2022/04/05 14:10:22;;;;;;;14.25;8.10;;;;;;;;;;5059106;28;20028;-73
2022/04/05 14:12:48;;;;;;;17.75;8.00;;;;;;;;;;5047029;28;20402;-74
2022/04/05 14:15:14;;;;;;;14.27;7.55;;;;;;;;;;5040353;28;20037;-74
2022/04/05 14:17:40;;;;;;;14.50;7.78;;;;;;;;;;5047329;28;20029;-73
2022/04/05 14:20:07;;;;;;;14.43;8.50;;;;;;;;;;5042023;28;20025;-73
2022/04/05 14:22:33;;;;;;;20.23;9.05;;;;;;;;;;5055593;28;20173;-73
2022/04/05 14:25:02;;;;;;;14.55;9.20;;;;;;;;;;5061871;28;20030;-74
2022/04/05 14:27:28;;;;;;;20.05;10.35;;;;;;;;;;5054626;28;20033;-74
2022/04/05 14:29:54;;;;;;;17.30;8.98;;;;;;;;;;5041142;28;20037;-74
2022/04/05 14:32:20;;;;;;;18.38;9.82;;;;;;;;;;5057915;28;20033;-72
2022/04/05 14:34:46;;;;;;;19.33;11.00;;;;;;;;;;5042033;28;20036;-73
2022/04/05 14:37:12;;;;;;;15.88;9.65;;;;;;;;;;5025886;28;20047;-74
2022/04/05 14:39:38;;;;;;;16.60;9.85;;;;;;;;;;5059011;28;20044;-74